createdAt,value
2022-10-31T00:01:39.667Z,9.28
2022-10-31T00:04:07.304Z,9.30
2022-10-31T00:06:34.714Z,9.32
2022-10-31T00:09:04.576Z,9.30
2022-10-31T00:11:32.246Z,9.25
2022-10-31T00:14:00.369Z,9.20
2022-10-31T00:16:29.605Z,9.16
2022-10-31T00:19:07.083Z,9.13
2022-10-31T00:21:35.972Z,9.08
2022-10-31T00:24:03.980Z,9.07
2022-10-31T00:26:32.606Z,9.03
2022-10-31T00:29:01.450Z,9.02
2022-10-31T00:31:29.315Z,8.98
2022-10-31T00:33:57.651Z,8.95
2022-10-31T00:36:24.824Z,8.92
2022-10-31T00:38:51.899Z,8.89
2022-10-31T00:41:19.553Z,8.84
2022-10-31T00:43:47.377Z,8.83
2022-10-31T00:46:15.227Z,8.79
2022-10-31T00:48:43.102Z,8.79
2022-10-31T00:51:11.488Z,8.77
2022-10-31T00:53:38.665Z,8.76
2022-10-31T00:56:06.626Z,8.69
2022-10-31T00:58:33.922Z,8.71
2022-10-31T01:01:01.292Z,8.70
2022-10-31T01:03:33.673Z,8.66
2022-10-31T01:06:10.973Z,8.63
2022-10-31T01:08:39.961Z,8.58
2022-10-31T01:11:22.199Z,8.56
2022-10-31T01:13:53.537Z,8.54
2022-10-31T01:16:24.334Z,8.52
2022-10-31T01:18:53.378Z,8.50
2022-10-31T01:21:27.722Z,8.50
2022-10-31T01:23:58.875Z,8.53
2022-10-31T01:26:41.820Z,8.50
2022-10-31T01:29:09.626Z,8.49
2022-10-31T01:31:40.490Z,8.51
2022-10-31T01:34:10.149Z,8.51
2022-10-31T01:36:39.792Z,8.48
2022-10-31T01:39:14.409Z,8.48
2022-10-31T01:41:46.640Z,8.45
2022-10-31T01:44:16.577Z,8.49
2022-10-31T01:47:11.122Z,8.48
2022-10-31T01:49:49.498Z,8.45
2022-10-31T01:52:31.003Z,8.41
2022-10-31T01:55:06.799Z,8.37
2022-10-31T01:57:36.439Z,8.38
2022-10-31T02:00:10.598Z,8.36
2022-10-31T02:02:38.072Z,8.36
2022-10-31T02:05:13.323Z,8.35
2022-10-31T02:08:09.547Z,8.33
2022-10-31T02:10:38.574Z,8.30
2022-10-31T02:13:09.411Z,8.30
2022-10-31T02:15:40.146Z,8.31
2022-10-31T02:18:09.355Z,8.32
2022-10-31T02:20:42.667Z,8.31
2022-10-31T02:23:50.442Z,8.26
2022-10-31T02:26:36.047Z,8.23
2022-10-31T02:29:39.256Z,8.21
2022-10-31T02:32:46.510Z,8.21
2022-10-31T02:35:22.918Z,8.20
2022-10-31T02:38:21.234Z,8.18
2022-10-31T02:41:20.074Z,8.11
2022-10-31T02:44:21.147Z,8.08
2022-10-31T02:47:02.708Z,8.07
2022-10-31T02:49:44.100Z,8.07
2022-10-31T02:52:24.233Z,8.07
2022-10-31T02:54:51.748Z,8.05
2022-10-31T02:57:30.039Z,8.03
2022-10-31T03:00:08.594Z,8.02
2022-10-31T03:03:20.519Z,7.97
2022-10-31T03:06:22.309Z,7.94
2022-10-31T03:09:09.840Z,7.94
2022-10-31T03:12:12.780Z,7.94
2022-10-31T03:15:09.185Z,7.91
2022-10-31T03:17:54.013Z,7.91
2022-10-31T03:20:29.999Z,7.90
2022-10-31T03:22:59.196Z,7.90
2022-10-31T03:25:28.679Z,7.86
2022-10-31T03:28:00.041Z,7.86
2022-10-31T03:30:28.058Z,7.83
2022-10-31T03:33:00.763Z,7.82
2022-10-31T03:35:31.425Z,7.79
2022-10-31T03:38:06.783Z,7.77
2022-10-31T03:40:39.286Z,7.73
2022-10-31T03:43:15.392Z,7.72
2022-10-31T03:45:47.671Z,7.68
2022-10-31T03:48:18.803Z,7.68
2022-10-31T03:51:07.681Z,7.68
2022-10-31T03:54:03.027Z,7.67
2022-10-31T03:56:49.378Z,7.66
2022-10-31T03:59:34.414Z,7.62
2022-10-31T04:02:09.191Z,7.65
2022-10-31T04:04:38.325Z,7.66
2022-10-31T04:07:07.820Z,7.64
2022-10-31T04:09:40.885Z,7.62
2022-10-31T04:12:12.442Z,7.60
2022-10-31T04:14:43.939Z,7.62
2022-10-31T04:17:18.673Z,7.61
2022-10-31T04:19:46.341Z,7.58
2022-10-31T04:22:14.247Z,7.58
2022-10-31T04:24:42.272Z,7.57
2022-10-31T04:27:09.449Z,7.55
2022-10-31T04:29:36.586Z,7.53
2022-10-31T04:32:03.850Z,7.52
2022-10-31T04:34:30.949Z,7.50
2022-10-31T04:36:58.251Z,7.52
2022-10-31T04:39:26.716Z,7.51
2022-10-31T04:41:54.199Z,7.51
2022-10-31T04:44:21.452Z,7.51
2022-10-31T04:46:48.843Z,7.51
2022-10-31T04:49:15.945Z,7.47
2022-10-31T04:51:43.019Z,7.46
2022-10-31T04:54:10.193Z,7.45
2022-10-31T04:56:37.369Z,7.46
2022-10-31T04:59:04.505Z,7.45
2022-10-31T05:01:31.861Z,7.46
2022-10-31T05:03:59.086Z,7.48
2022-10-31T05:06:26.242Z,7.44
2022-10-31T05:08:53.372Z,7.43
2022-10-31T05:11:20.474Z,7.40
2022-10-31T05:13:47.768Z,7.39
2022-10-31T05:16:15.111Z,7.37
2022-10-31T05:18:42.498Z,7.36
2022-10-31T05:21:09.685Z,7.32
2022-10-31T05:23:36.775Z,7.32
2022-10-31T05:26:04.334Z,7.33
2022-10-31T05:28:31.480Z,7.30
2022-10-31T05:30:58.652Z,7.28
2022-10-31T05:33:25.847Z,7.26
2022-10-31T05:35:53.036Z,7.26
2022-10-31T05:38:20.279Z,7.24
2022-10-31T05:40:47.378Z,7.25
2022-10-31T05:43:14.878Z,7.22
2022-10-31T05:45:41.949Z,7.22
2022-10-31T05:48:09.885Z,7.22
2022-10-31T05:50:37.010Z,7.19
2022-10-31T05:53:06.389Z,7.20
2022-10-31T05:55:34.248Z,7.17
2022-10-31T05:58:02.003Z,7.17
2022-10-31T06:00:29.708Z,7.17
2022-10-31T06:03:05.517Z,7.20
2022-10-31T06:05:33.390Z,7.19
2022-10-31T06:08:01.930Z,7.18
2022-10-31T06:10:29.797Z,7.22
2022-10-31T06:12:56.932Z,7.19
2022-10-31T06:15:24.946Z,7.22
2022-10-31T06:18:06.938Z,7.23
2022-10-31T06:20:35.255Z,7.20
2022-10-31T06:23:03.761Z,7.24
2022-10-31T06:25:31.267Z,7.25
2022-10-31T06:27:58.558Z,7.27
2022-10-31T06:30:26.583Z,7.27
2022-10-31T06:32:54.024Z,7.27
2022-10-31T06:35:21.466Z,7.29
2022-10-31T06:37:55.756Z,7.29
2022-10-31T06:40:25.264Z,7.30
2022-10-31T06:43:02.496Z,7.31
2022-10-31T06:45:30.333Z,7.36
2022-10-31T06:50:45.839Z,7.43
2022-10-31T06:53:13.268Z,7.47
2022-10-31T06:55:40.977Z,7.50
2022-10-31T06:58:10.740Z,7.56
2022-10-31T07:00:38.296Z,7.62
2022-10-31T07:03:11.586Z,7.64
2022-10-31T07:05:39.126Z,7.68
2022-10-31T07:08:10.527Z,7.73
2022-10-31T07:10:41.002Z,7.79
2022-10-31T07:13:14.263Z,7.84
2022-10-31T07:15:44.096Z,7.92
2022-10-31T07:18:13.600Z,7.99
2022-10-31T07:20:40.867Z,8.06
2022-10-31T07:23:10.539Z,8.10
2022-10-31T07:25:39.116Z,8.20
2022-10-31T07:28:07.014Z,8.26
2022-10-31T07:30:34.503Z,8.33
2022-10-31T07:33:01.811Z,8.42
2022-10-31T07:35:30.551Z,8.52
2022-10-31T07:37:58.694Z,8.63
2022-10-31T07:40:26.545Z,8.75
2022-10-31T07:42:56.082Z,8.84
2022-10-31T07:45:26.941Z,8.97
2022-10-31T07:47:54.865Z,9.09
2022-10-31T07:50:32.105Z,9.22
2022-10-31T07:53:05.889Z,9.33
2022-10-31T07:55:34.086Z,9.46
2022-10-31T07:58:20.613Z,9.57
2022-10-31T08:00:49.070Z,9.67
2022-10-31T08:03:19.999Z,9.73
2022-10-31T08:05:47.514Z,9.82
2022-10-31T08:08:15.710Z,9.92
2022-10-31T08:10:43.285Z,10.02
2022-10-31T08:13:15.184Z,10.14
2022-10-31T08:15:42.790Z,10.23
2022-10-31T08:18:15.729Z,10.34
2022-10-31T08:20:44.608Z,10.46
2022-10-31T08:23:13.545Z,10.59
2022-10-31T08:25:41.426Z,10.67
2022-10-31T08:28:11.301Z,10.79
2022-10-31T08:30:39.337Z,10.84
2022-10-31T08:33:18.497Z,10.95
2022-10-31T08:35:45.979Z,11.03
2022-10-31T08:38:14.322Z,11.13
2022-10-31T08:40:42.316Z,11.23
2022-10-31T08:43:18.169Z,11.30
2022-10-31T08:45:49.539Z,11.44
2022-10-31T08:48:18.387Z,11.52
2022-10-31T08:50:46.942Z,11.68
2022-10-31T08:53:16.922Z,11.74
2022-10-31T08:55:46.007Z,11.83
2022-10-31T08:58:19.593Z,11.93
2022-10-31T09:00:49.271Z,12.07
2022-10-31T09:03:26.135Z,12.14
2022-10-31T09:05:58.609Z,12.23
2022-10-31T09:08:26.600Z,12.30
2022-10-31T09:10:57.717Z,12.39
2022-10-31T09:13:27.967Z,12.48
2022-10-31T09:15:58.091Z,12.61
2022-10-31T09:18:26.096Z,12.67
2022-10-31T09:20:53.251Z,12.76
2022-10-31T09:23:23.789Z,12.85
2022-10-31T09:25:53.708Z,12.93
2022-10-31T09:28:24.552Z,13.05
2022-10-31T09:30:54.367Z,13.18
2022-10-31T09:33:22.345Z,13.27
2022-10-31T09:35:49.627Z,13.30
2022-10-31T09:38:22.139Z,13.39
2022-10-31T09:41:26.462Z,13.49
2022-10-31T09:44:38.333Z,13.54
2022-10-31T09:47:11.309Z,13.59
2022-10-31T09:50:19.227Z,13.69
2022-10-31T09:53:03.709Z,13.78
2022-10-31T09:55:45.586Z,13.89
2022-10-31T09:58:29.787Z,13.99
2022-10-31T10:01:02.889Z,13.90
2022-10-31T10:03:49.715Z,13.97
2022-10-31T10:06:33.668Z,14.06
2022-10-31T10:09:02.557Z,14.11
2022-10-31T10:12:15.407Z,14.15
2022-10-31T10:15:19.518Z,14.19
2022-10-31T10:18:24.236Z,14.25
2022-10-31T10:21:35.920Z,14.36
2022-10-31T10:24:23.715Z,14.40
2022-10-31T10:27:17.998Z,14.45
2022-10-31T10:30:23.269Z,14.55
2022-10-31T10:33:03.544Z,14.60
2022-10-31T10:35:34.668Z,14.68
2022-10-31T10:38:21.109Z,14.77
2022-10-31T10:40:49.113Z,14.83
2022-10-31T10:43:36.403Z,14.91
2022-10-31T10:46:44.667Z,15.00
2022-10-31T10:49:43.059Z,15.05
2022-10-31T10:52:54.232Z,15.18
2022-10-31T10:55:30.281Z,15.24
2022-10-31T10:58:04.702Z,15.32
2022-10-31T11:00:47.925Z,15.37
2022-10-31T11:03:17.952Z,15.42
2022-10-31T11:05:59.255Z,15.50
2022-10-31T11:08:37.370Z,15.60
2022-10-31T11:11:12.307Z,15.68
2022-10-31T11:13:44.895Z,15.81
2022-10-31T11:16:39.542Z,15.94
2022-10-31T11:19:17.660Z,16.27
2022-10-31T11:21:49.843Z,16.70
2022-10-31T11:24:26.109Z,17.12
2022-10-31T11:27:12.749Z,17.63
2022-10-31T11:29:40.017Z,18.20
2022-10-31T11:32:22.044Z,18.89
2022-10-31T11:35:00.305Z,19.59
2022-10-31T11:37:33.106Z,20.18
2022-10-31T11:40:06.351Z,20.62
2022-10-31T11:42:43.369Z,20.95
2022-10-31T11:45:20.669Z,21.33
2022-10-31T11:47:58.239Z,21.81
2022-10-31T11:50:35.625Z,22.28
2022-10-31T11:53:04.588Z,22.57
2022-10-31T11:55:39.248Z,22.68
2022-10-31T11:58:21.617Z,22.85
2022-10-31T12:00:56.299Z,22.98
2022-10-31T12:03:23.480Z,23.04
2022-10-31T12:06:20.562Z,23.03
2022-10-31T12:08:48.143Z,22.95
2022-10-31T12:11:50.730Z,22.86
2022-10-31T12:15:02.225Z,22.63
2022-10-31T12:17:47.368Z,22.56
2022-10-31T12:21:10.074Z,22.44
2022-10-31T12:24:21.796Z,22.24
2022-10-31T12:26:54.949Z,21.96
2022-10-31T12:29:36.291Z,21.73
2022-10-31T12:32:30.653Z,21.68
2022-10-31T12:35:41.992Z,21.75
2022-10-31T12:38:36.628Z,21.72
2022-10-31T12:41:42.582Z,21.58
2022-10-31T12:44:37.612Z,21.35
2022-10-31T12:47:38.863Z,20.91
2022-10-31T12:50:52.922Z,20.62
2022-10-31T12:53:35.026Z,20.33
2022-10-31T12:56:31.942Z,19.97
2022-10-31T12:59:25.402Z,19.74
2022-10-31T13:02:04.689Z,19.52
2022-10-31T13:05:11.444Z,19.30
2022-10-31T13:08:10.278Z,19.12
2022-10-31T13:10:57.038Z,19.00
2022-10-31T13:13:42.443Z,18.89
2022-10-31T13:16:23.727Z,18.75
2022-10-31T13:19:01.395Z,18.65
2022-10-31T13:22:05.545Z,18.55
2022-10-31T13:25:12.080Z,18.43
2022-10-31T13:28:03.749Z,18.34
2022-10-31T13:30:37.523Z,18.29
2022-10-31T13:33:40.796Z,18.22
2022-10-31T13:36:40.490Z,18.13
2022-10-31T13:39:44.594Z,18.04
2022-10-31T13:42:49.705Z,17.96
2022-10-31T13:45:21.832Z,17.90
2022-10-31T13:48:20.980Z,17.85
2022-10-31T13:51:01.960Z,17.78
2022-10-31T13:53:41.288Z,17.75
2022-10-31T13:56:27.841Z,17.73
2022-10-31T13:59:17.333Z,17.69
2022-10-31T14:01:57.526Z,17.67
2022-10-31T14:04:29.318Z,17.64
2022-10-31T14:07:07.479Z,17.63
2022-10-31T14:09:49.363Z,17.58
2022-10-31T14:12:41.399Z,17.54
2022-10-31T14:15:25.402Z,17.54
2022-10-31T14:18:20.167Z,17.60
2022-10-31T14:20:47.371Z,17.61
2022-10-31T14:23:40.520Z,17.66
2022-10-31T14:26:26.711Z,17.62
2022-10-31T14:29:01.362Z,17.59
2022-10-31T14:31:42.273Z,17.53
2022-10-31T14:34:38.398Z,17.46
2022-10-31T14:37:43.343Z,17.36
2022-10-31T14:40:27.539Z,17.26
2022-10-31T14:43:13.180Z,17.19
2022-10-31T14:46:29.121Z,17.16
2022-10-31T14:49:35.316Z,17.10
2022-10-31T14:52:08.091Z,17.04
2022-10-31T14:54:48.805Z,17.02
2022-10-31T14:57:23.449Z,16.94
2022-10-31T14:59:59.180Z,16.91
2022-10-31T15:03:13.546Z,16.85
2022-10-31T15:05:52.911Z,16.79
2022-10-31T15:08:35.599Z,16.72
2022-10-31T15:11:25.449Z,16.67
2022-10-31T15:13:57.894Z,16.63
2022-10-31T15:16:40.745Z,16.56
2022-10-31T15:19:16.616Z,16.50
2022-10-31T15:21:46.687Z,16.41
2022-10-31T15:24:17.271Z,16.36
2022-10-31T15:26:50.256Z,16.30
2022-10-31T15:29:20.923Z,16.26
2022-10-31T15:31:54.254Z,16.21
2022-10-31T15:34:44.070Z,16.18
2022-10-31T15:37:17.890Z,16.15
2022-10-31T15:39:47.370Z,16.12
2022-10-31T15:42:43.759Z,16.08
2022-10-31T15:45:10.914Z,16.05
2022-10-31T15:47:38.933Z,16.04
2022-10-31T15:50:21.791Z,15.98
2022-10-31T15:52:50.252Z,15.96
2022-10-31T15:55:26.695Z,15.91
2022-10-31T15:58:00.136Z,15.89
2022-10-31T16:00:34.473Z,15.85
2022-10-31T16:03:07.597Z,15.81
2022-10-31T16:05:53.116Z,15.77
2022-10-31T16:08:33.916Z,15.73
2022-10-31T16:11:38.002Z,15.66
2022-10-31T16:14:25.273Z,15.64
2022-10-31T16:17:03.049Z,15.57
2022-10-31T16:19:44.186Z,15.52
2022-10-31T16:22:21.960Z,15.47
2022-10-31T16:24:52.256Z,15.46
2022-10-31T16:27:25.820Z,15.47
2022-10-31T16:29:53.598Z,15.47
2022-10-31T16:32:38.523Z,15.45
2022-10-31T16:35:35.990Z,15.40
2022-10-31T16:38:05.360Z,15.34
2022-10-31T16:40:33.480Z,15.31
2022-10-31T16:43:02.270Z,15.25
2022-10-31T16:45:34.064Z,15.17
2022-10-31T16:48:12.112Z,15.14
2022-10-31T16:50:39.739Z,15.11
2022-10-31T16:53:14.789Z,15.10
2022-10-31T16:55:56.140Z,15.10
2022-10-31T16:58:36.512Z,15.08
2022-10-31T17:01:07.885Z,15.08
2022-10-31T17:03:36.312Z,15.02
2022-10-31T17:06:03.792Z,15.02
2022-10-31T17:08:31.067Z,15.00
2022-10-31T17:11:00.699Z,14.95
2022-10-31T17:13:31.909Z,14.92
2022-10-31T17:16:02.978Z,14.92
2022-10-31T17:18:30.696Z,14.90
2022-10-31T17:21:05.629Z,14.82
2022-10-31T17:23:33.682Z,14.79
2022-10-31T17:26:03.679Z,14.81
2022-10-31T17:28:44.548Z,14.78
2022-10-31T17:31:27.174Z,14.80
2022-10-31T17:34:02.042Z,14.77
2022-10-31T17:36:32.522Z,14.79
2022-10-31T17:39:00.312Z,14.82
2022-10-31T17:41:27.537Z,14.79
2022-10-31T17:43:59.612Z,14.79
2022-10-31T17:46:27.191Z,14.77
2022-10-31T17:48:54.408Z,14.73
2022-10-31T17:51:21.627Z,14.66
2022-10-31T17:53:48.894Z,14.65
2022-10-31T17:56:16.226Z,14.62
2022-10-31T17:58:43.376Z,14.54
2022-10-31T18:01:14.345Z,14.46
2022-10-31T18:03:42.162Z,14.34
2022-10-31T18:06:11.127Z,14.22
2022-10-31T18:08:41.200Z,14.11
2022-10-31T18:11:16.001Z,14.03
2022-10-31T18:13:43.209Z,13.94
2022-10-31T18:16:15.332Z,13.84
2022-10-31T18:18:42.874Z,13.76
2022-10-31T18:21:10.501Z,13.64
2022-10-31T18:23:38.022Z,13.57
2022-10-31T18:26:05.347Z,13.50
2022-10-31T18:28:32.571Z,13.42
2022-10-31T18:31:00.460Z,13.35
2022-10-31T18:33:28.228Z,13.30
2022-10-31T18:35:56.000Z,13.26
2022-10-31T18:38:23.583Z,13.20
2022-10-31T18:40:52.033Z,13.15
2022-10-31T18:43:19.210Z,13.08
2022-10-31T18:45:48.585Z,13.01
2022-10-31T18:48:17.658Z,12.97
2022-10-31T18:50:45.262Z,12.90
2022-10-31T18:53:12.530Z,12.83
2022-10-31T18:55:45.731Z,12.80
2022-10-31T18:58:17.748Z,12.68
2022-10-31T19:00:45.350Z,12.62
2022-10-31T19:03:13.912Z,12.53
2022-10-31T19:05:41.331Z,12.47
2022-10-31T19:08:08.591Z,12.41
2022-10-31T19:10:38.587Z,12.35
2022-10-31T19:13:06.696Z,12.30
2022-10-31T19:15:35.564Z,12.23
2022-10-31T19:18:03.350Z,12.17
2022-10-31T19:20:31.767Z,12.19
2022-10-31T19:22:59.287Z,12.12
2022-10-31T19:25:26.754Z,12.09
2022-10-31T19:27:54.238Z,12.06
2022-10-31T19:30:21.768Z,11.98
2022-10-31T19:32:48.974Z,11.91
2022-10-31T19:35:16.294Z,11.84
2022-10-31T19:37:43.447Z,11.81
2022-10-31T19:40:11.666Z,11.77
2022-10-31T19:42:38.833Z,11.74
2022-10-31T19:45:06.866Z,11.65
2022-10-31T19:47:34.209Z,11.60
2022-10-31T19:50:02.513Z,11.59
2022-10-31T19:52:29.816Z,11.54
2022-10-31T19:54:57.013Z,11.48
2022-10-31T19:57:41.959Z,11.42
2022-10-31T20:00:12.317Z,11.38
2022-10-31T20:02:39.565Z,11.33
2022-10-31T20:05:07.268Z,11.31
2022-10-31T20:07:34.810Z,11.29
2022-10-31T20:10:01.993Z,11.23
2022-10-31T20:12:29.605Z,11.21
2022-10-31T20:14:56.801Z,11.18
2022-10-31T20:17:23.968Z,11.14
2022-10-31T20:19:51.199Z,11.07
2022-10-31T20:22:18.653Z,11.02
2022-10-31T20:24:46.160Z,10.97
2022-10-31T20:27:13.399Z,10.91
2022-10-31T20:29:40.705Z,10.88
2022-10-31T20:32:08.049Z,10.86
2022-10-31T20:34:35.274Z,10.80
2022-10-31T20:37:02.486Z,10.74
2022-10-31T20:39:29.702Z,10.74
2022-10-31T20:41:56.903Z,10.75
2022-10-31T20:44:24.102Z,10.70
2022-10-31T20:46:51.265Z,10.68
2022-10-31T20:49:18.455Z,10.65
2022-10-31T20:51:45.782Z,10.58
2022-10-31T20:54:14.388Z,10.55
2022-10-31T20:56:41.605Z,10.49
2022-10-31T20:59:08.915Z,10.45
2022-10-31T21:01:36.320Z,10.39
2022-10-31T21:04:05.336Z,10.36
2022-10-31T21:06:32.680Z,10.32
2022-10-31T21:08:59.950Z,10.29
2022-10-31T21:11:29.057Z,10.26
2022-10-31T21:13:56.569Z,10.21
2022-10-31T21:16:32.821Z,10.19
2022-10-31T21:19:01.215Z,10.12
2022-10-31T21:21:36.868Z,10.10
2022-10-31T21:24:13.987Z,10.05
2022-10-31T21:26:46.068Z,10.01
2022-10-31T21:29:15.072Z,10.01
2022-10-31T21:31:43.479Z,9.96
2022-10-31T21:34:11.864Z,9.94
2022-10-31T21:36:39.800Z,9.94
2022-10-31T21:39:08.745Z,9.92
2022-10-31T21:41:36.579Z,9.91
2022-10-31T21:44:04.516Z,9.88
2022-10-31T21:46:33.857Z,9.85
2022-10-31T21:49:03.776Z,9.86
2022-10-31T21:51:35.577Z,9.82
2022-10-31T21:54:03.523Z,9.77
2022-10-31T21:56:31.128Z,9.77
2022-10-31T21:58:59.362Z,9.73
2022-10-31T22:01:29.192Z,9.67
2022-10-31T22:03:57.982Z,9.67
2022-10-31T22:06:26.955Z,9.66
2022-10-31T22:08:54.937Z,9.66
2022-10-31T22:11:22.549Z,9.62
2022-10-31T22:13:50.752Z,9.57
2022-10-31T22:16:22.262Z,9.56
2022-10-31T22:18:54.744Z,9.47
2022-10-31T22:21:25.656Z,9.49
2022-10-31T22:24:01.998Z,9.45
2022-10-31T22:26:33.579Z,9.45
2022-10-31T22:29:05.770Z,9.40
2022-10-31T22:31:37.263Z,9.42
2022-10-31T22:34:04.543Z,9.39
2022-10-31T22:36:32.448Z,9.42
2022-10-31T22:39:00.041Z,9.40
2022-10-31T22:41:31.338Z,9.40
2022-10-31T22:44:00.107Z,9.38
2022-10-31T22:46:37.147Z,9.35
2022-10-31T22:49:12.289Z,9.22
2022-10-31T22:51:40.993Z,9.23
2022-10-31T22:54:14.137Z,9.22
2022-10-31T22:56:41.786Z,9.19
2022-10-31T22:59:13.977Z,9.12
2022-10-31T23:01:41.601Z,9.13
2022-10-31T23:04:09.312Z,9.13
2022-10-31T23:06:37.692Z,9.13
2022-10-31T23:09:07.810Z,9.13
2022-10-31T23:11:39.202Z,9.14
2022-10-31T23:14:14.704Z,9.08
2022-10-31T23:16:54.979Z,9.09
2022-10-31T23:19:30.365Z,9.02
2022-10-31T23:22:02.920Z,9.05
2022-10-31T23:24:39.628Z,9.05
2022-10-31T23:27:13.995Z,9.06
2022-10-31T23:29:52.906Z,9.03
2022-10-31T23:32:27.251Z,9.02
2022-10-31T23:34:58.466Z,8.94
2022-10-31T23:37:29.954Z,8.92
2022-10-31T23:39:58.076Z,8.92
2022-10-31T23:42:27.170Z,8.89
2022-10-31T23:44:55.132Z,8.82
2022-10-31T23:47:23.379Z,8.80
2022-10-31T23:49:51.348Z,8.77
2022-10-31T23:52:18.608Z,8.73
2022-10-31T23:54:45.973Z,8.66
2022-10-31T23:57:15.846Z,8.68
2022-10-31T23:59:43.460Z,8.66
